Terminal Aerodrome Forecast
Issued by NWS Melbourne, FL

Home | Current Version | Previous Version | Text Only | Print | Product List | Glossary On
Versions: 1 2 3 4 5 6 7 8 9 10 11 12 13
000
FTUS42 KMLB 252321
TAFDAB
TAF
KDAB 252321Z 2600/2624 10010KT P6SM FEW035 BKN100
     FM260100 18002KT P6SM FEW030 SCT250
     FM261400 18006KT P6SM SCT035
     FM261800 12009KT P6SM VCTS SCT035CB BKN060=

USA.gov is the U.S. government's official web portal to all federal, state and local government web resources and services.